sensor_id;sensor_type;location;lat;lon;timestamp;pressure;altitude;pressure_sealevel;temperature;humidity
59110;BME280;44895;47.438;18.978;2023-04-27T00:00:00;100255.19;;;3.80;100.00
59110;BME280;44895;47.438;18.978;2023-04-27T00:03:03;100260.38;;;3.69;100.00
59110;BME280;44895;47.438;18.978;2023-04-27T00:06:08;100254.53;;;3.72;100.00
59110;BME280;44895;47.438;18.978;2023-04-27T00:09:12;100256.00;;;3.80;100.00
59110;BME280;44895;47.438;18.978;2023-04-27T00:12:15;100255.25;;;3.68;100.00
59110;BME280;44895;47.438;18.978;2023-04-27T00:15:19;100246.69;;;3.71;100.00
59110;BME280;44895;47.438;18.978;2023-04-27T00:18:22;100259.19;;;3.94;100.00
59110;BME280;44895;47.438;18.978;2023-04-27T00:21:26;100258.34;;;3.94;100.00
59110;BME280;44895;47.438;18.978;2023-04-27T00:24:30;100255.19;;;3.97;100.00
59110;BME280;44895;47.438;18.978;2023-04-27T00:27:33;100253.22;;;3.92;100.00
59110;BME280;44895;47.438;18.978;2023-04-27T00:30:37;100252.72;;;3.95;100.00
59110;BME280;44895;47.438;18.978;2023-04-27T00:33:41;100256.31;;;4.01;100.00
59110;BME280;44895;47.438;18.978;2023-04-27T00:36:44;100251.75;;;4.18;100.00
59110;BME280;44895;47.438;18.978;2023-04-27T00:39:49;100245.25;;;3.97;100.00
59110;BME280;44895;47.438;18.978;2023-04-27T00:42:53;100254.88;;;3.93;100.00
59110;BME280;44895;47.438;18.978;2023-04-27T00:45:57;100253.63;;;3.84;100.00
59110;BME280;44895;47.438;18.978;2023-04-27T00:49:01;100248.00;;;3.68;100.00
59110;BME280;44895;47.438;18.978;2023-04-27T00:52:05;100250.69;;;3.68;100.00
59110;BME280;44895;47.438;18.978;2023-04-27T00:55:09;100253.03;;;3.48;100.00
59110;BME280;44895;47.438;18.978;2023-04-27T00:58:13;100246.66;;;3.37;100.00
59110;BME280;44895;47.438;18.978;2023-04-27T01:01:16;100249.78;;;3.46;100.00
59110;BME280;44895;47.438;18.978;2023-04-27T01:04:20;100253.03;;;3.48;100.00
59110;BME280;44895;47.438;18.978;2023-04-27T01:07:25;100256.56;;;3.19;100.00
59110;BME280;44895;47.438;18.978;2023-04-27T01:10:28;100255.81;;;3.53;100.00
59110;BME280;44895;47.438;18.978;2023-04-27T01:13:32;100254.81;;;3.42;100.00
59110;BME280;44895;47.438;18.978;2023-04-27T01:16:38;100262.66;;;3.43;100.00
59110;BME280;44895;47.438;18.978;2023-04-27T01:19:43;100252.78;;;3.49;100.00
59110;BME280;44895;47.438;18.978;2023-04-27T01:22:47;100256.56;;;3.19;100.00
59110;BME280;44895;47.438;18.978;2023-04-27T01:25:52;100262.41;;;3.16;100.00
59110;BME280;44895;47.438;18.978;2023-04-27T01:28:57;100268.19;;;3.08;100.00
59110;BME280;44895;47.438;18.978;2023-04-27T01:32:03;100263.94;;;2.83;100.00
59110;BME280;44895;47.438;18.978;2023-04-27T01:35:08;100276.53;;;3.12;100.00
59110;BME280;44895;47.438;18.978;2023-04-27T01:38:12;100275.88;;;3.04;100.00
59110;BME280;44895;47.438;18.978;2023-04-27T01:41:15;100272.41;;;2.92;100.00
59110;BME280;44895;47.438;18.978;2023-04-27T01:44:20;100270.50;;;3.04;100.00
59110;BME280;44895;47.438;18.978;2023-04-27T01:47:26;100278.38;;;2.82;100.00
59110;BME280;44895;47.438;18.978;2023-04-27T01:50:30;100277.97;;;3.02;100.00
59110;BME280;44895;47.438;18.978;2023-04-27T01:53:33;100287.75;;;2.68;100.00
59110;BME280;44895;47.438;18.978;2023-04-27T01:56:37;100277.81;;;2.68;100.00
59110;BME280;44895;47.438;18.978;2023-04-27T01:59:41;100281.66;;;2.84;100.00
59110;BME280;44895;47.438;18.978;2023-04-27T02:02:44;100274.19;;;2.86;100.00
59110;BME280;44895;47.438;18.978;2023-04-27T02:05:48;100271.75;;;2.73;100.00
59110;BME280;44895;47.438;18.978;2023-04-27T02:08:52;100278.03;;;2.78;100.00
59110;BME280;44895;47.438;18.978;2023-04-27T02:11:56;100284.97;;;2.63;100.00
59110;BME280;44895;47.438;18.978;2023-04-27T02:14:59;100289.53;;;2.03;100.00
59110;BME280;44895;47.438;18.978;2023-04-27T02:18:03;100289.44;;;2.33;100.00
59110;BME280;44895;47.438;18.978;2023-04-27T02:21:08;100288.16;;;2.36;100.00
59110;BME280;44895;47.438;18.978;2023-04-27T02:24:13;100293.97;;;2.33;100.00
59110;BME280;44895;47.438;18.978;2023-04-27T02:27:17;100294.06;;;2.61;100.00
59110;BME280;44895;47.438;18.978;2023-04-27T02:30:20;100297.44;;;2.57;100.00
59110;BME280;44895;47.438;18.978;2023-04-27T02:33:25;100296.16;;;2.59;100.00
59110;BME280;44895;47.438;18.978;2023-04-27T02:36:28;100306.66;;;2.25;100.00
59110;BME280;44895;47.438;18.978;2023-04-27T02:39:34;100302.84;;;2.33;100.00
59110;BME280;44895;47.438;18.978;2023-04-27T02:42:37;100304.81;;;2.26;100.00
59110;BME280;44895;47.438;18.978;2023-04-27T02:45:41;100310.38;;;2.48;100.00
59110;BME280;44895;47.438;18.978;2023-04-27T02:48:45;100309.44;;;2.54;100.00
59110;BME280;44895;47.438;18.978;2023-04-27T02:51:49;100308.63;;;2.42;100.00
59110;BME280;44895;47.438;18.978;2023-04-27T02:54:53;100319.47;;;2.11;100.00
59110;BME280;44895;47.438;18.978;2023-04-27T02:57:57;100317.16;;;2.27;100.00
59110;BME280;44895;47.438;18.978;2023-04-27T03:01:01;100327.66;;;2.28;100.00
59110;BME280;44895;47.438;18.978;2023-04-27T03:04:04;100314.59;;;2.32;100.00
59110;BME280;44895;47.438;18.978;2023-04-27T03:07:08;100317.03;;;2.57;100.00
59110;BME280;44895;47.438;18.978;2023-04-27T03:10:13;100324.41;;;2.38;100.00
59110;BME280;44895;47.438;18.978;2023-04-27T03:13:17;100327.16;;;2.32;100.00
59110;BME280;44895;47.438;18.978;2023-04-27T03:16:21;100327.72;;;1.98;100.00
59110;BME280;44895;47.438;18.978;2023-04-27T03:19:24;100342.78;;;2.23;100.00
59110;BME280;44895;47.438;18.978;2023-04-27T03:22:28;100336.03;;;2.20;100.00
59110;BME280;44895;47.438;18.978;2023-04-27T03:25:32;100342.56;;;2.24;100.00
59110;BME280;44895;47.438;18.978;2023-04-27T03:28:36;100337.22;;;2.24;100.00
59110;BME280;44895;47.438;18.978;2023-04-27T03:31:41;100342.22;;;2.21;100.00
59110;BME280;44895;47.438;18.978;2023-04-27T03:34:45;100344.84;;;2.09;100.00
59110;BME280;44895;47.438;18.978;2023-04-27T03:37:49;100354.66;;;2.15;100.00
59110;BME280;44895;47.438;18.978;2023-04-27T03:40:53;100346.75;;;2.20;100.00
59110;BME280;44895;47.438;18.978;2023-04-27T03:43:57;100345.41;;;1.87;100.00
59110;BME280;44895;47.438;18.978;2023-04-27T03:47:01;100349.53;;;2.02;100.00
59110;BME280;44895;47.438;18.978;2023-04-27T03:50:05;100348.34;;;1.98;100.00
59110;BME280;44895;47.438;18.978;2023-04-27T03:53:09;100354.28;;;1.88;100.00
59110;BME280;44895;47.438;18.978;2023-04-27T03:56:13;100362.19;;;1.94;100.00
59110;BME280;44895;47.438;18.978;2023-04-27T03:59:17;100358.59;;;2.01;100.00
59110;BME280;44895;47.438;18.978;2023-04-27T04:02:26;100362.69;;;2.03;100.00
59110;BME280;44895;47.438;18.978;2023-04-27T04:05:29;100364.81;;;2.13;100.00
59110;BME280;44895;47.438;18.978;2023-04-27T04:08:33;100372.28;;;2.35;100.00
59110;BME280;44895;47.438;18.978;2023-04-27T04:11:37;100365.06;;;2.23;100.00
59110;BME280;44895;47.438;18.978;2023-04-27T04:14:43;100373.47;;;2.39;100.00
59110;BME280;44895;47.438;18.978;2023-04-27T04:17:49;100367.81;;;2.05;100.00
59110;BME280;44895;47.438;18.978;2023-04-27T04:20:55;100371.38;;;2.41;100.00
59110;BME280;44895;47.438;18.978;2023-04-27T04:23:58;100382.91;;;2.41;100.00
59110;BME280;44895;47.438;18.978;2023-04-27T04:27:02;100380.34;;;2.58;100.00
59110;BME280;44895;47.438;18.978;2023-04-27T04:30:07;100381.59;;;3.03;100.00
59110;BME280;44895;47.438;18.978;2023-04-27T04:33:13;100380.81;;;2.79;100.00
59110;BME280;44895;47.438;18.978;2023-04-27T04:36:17;100379.16;;;3.02;100.00
59110;BME280;44895;47.438;18.978;2023-04-27T04:39:21;100390.66;;;3.26;100.00
59110;BME280;44895;47.438;18.978;2023-04-27T04:42:24;100391.94;;;3.23;100.00
59110;BME280;44895;47.438;18.978;2023-04-27T04:45:28;100396.06;;;3.55;100.00
59110;BME280;44895;47.438;18.978;2023-04-27T04:48:34;100384.22;;;3.68;100.00
59110;BME280;44895;47.438;18.978;2023-04-27T04:51:41;100387.75;;;3.85;100.00
59110;BME280;44895;47.438;18.978;2023-04-27T04:54:45;100391.84;;;4.05;100.00
59110;BME280;44895;47.438;18.978;2023-04-27T04:57:49;100382.06;;;3.99;100.00
59110;BME280;44895;47.438;18.978;2023-04-27T05:00:53;100388.69;;;4.25;100.00
59110;BME280;44895;47.438;18.978;2023-04-27T05:03:56;100391.63;;;4.57;100.00
59110;BME280;44895;47.438;18.978;2023-04-27T05:07:00;100396.25;;;4.62;100.00
59110;BME280;44895;47.438;18.978;2023-04-27T05:10:04;100398.63;;;4.98;100.00
59110;BME280;44895;47.438;18.978;2023-04-27T05:13:08;100388.22;;;5.23;100.00
59110;BME280;44895;47.438;18.978;2023-04-27T05:16:12;100400.22;;;5.38;100.00
59110;BME280;44895;47.438;18.978;2023-04-27T05:19:15;100399.03;;;5.51;100.00
59110;BME280;44895;47.438;18.978;2023-04-27T05:22:23;100395.94;;;5.86;100.00
59110;BME280;44895;47.438;18.978;2023-04-27T05:25:33;100404.19;;;6.02;100.00
59110;BME280;44895;47.438;18.978;2023-04-27T05:28:37;100410.41;;;6.35;100.00
59110;BME280;44895;47.438;18.978;2023-04-27T05:31:40;100402.16;;;6.52;100.00
59110;BME280;44895;47.438;18.978;2023-04-27T05:34:44;100399.44;;;6.84;100.00
59110;BME280;44895;47.438;18.978;2023-04-27T05:37:48;100407.94;;;7.09;100.00
59110;BME280;44895;47.438;18.978;2023-04-27T05:40:56;100418.03;;;7.29;100.00
59110;BME280;44895;47.438;18.978;2023-04-27T05:43:59;100409.22;;;7.54;100.00
59110;BME280;44895;47.438;18.978;2023-04-27T05:47:03;100416.31;;;7.86;99.09
59110;BME280;44895;47.438;18.978;2023-04-27T05:50:07;100419.41;;;8.46;98.86
59110;BME280;44895;47.438;18.978;2023-04-27T05:53:11;100421.13;;;9.23;96.64
59110;BME280;44895;47.438;18.978;2023-04-27T05:56:15;100409.25;;;9.79;78.30
59110;BME280;44895;47.438;18.978;2023-04-27T05:59:19;100392.03;;;15.39;69.19
59110;BME280;44895;47.438;18.978;2023-04-27T06:02:24;100400.19;;;19.49;47.24
59110;BME280;44895;47.438;18.978;2023-04-27T06:05:27;100406.34;;;21.51;41.29
59110;BME280;44895;47.438;18.978;2023-04-27T06:08:31;100418.44;;;19.16;41.41
59110;BME280;44895;47.438;18.978;2023-04-27T06:11:34;100427.56;;;16.40;44.30
59110;BME280;44895;47.438;18.978;2023-04-27T06:14:38;100424.81;;;15.79;45.95
59110;BME280;44895;47.438;18.978;2023-04-27T06:17:43;100430.13;;;15.75;45.18
59110;BME280;44895;47.438;18.978;2023-04-27T06:20:46;100426.25;;;15.68;45.81
59110;BME280;44895;47.438;18.978;2023-04-27T06:23:50;100429.22;;;16.06;46.15
59110;BME280;44895;47.438;18.978;2023-04-27T06:26:53;100425.41;;;18.43;43.28
59110;BME280;44895;47.438;18.978;2023-04-27T06:29:57;100436.41;;;18.01;41.35
59110;BME280;44895;47.438;18.978;2023-04-27T06:33:01;100434.50;;;17.41;40.44
59110;BME280;44895;47.438;18.978;2023-04-27T06:36:05;100427.31;;;18.88;38.11
59110;BME280;44895;47.438;18.978;2023-04-27T06:39:09;100418.09;;;20.08;38.79
59110;BME280;44895;47.438;18.978;2023-04-27T06:42:14;100419.94;;;22.55;34.76
59110;BME280;44895;47.438;18.978;2023-04-27T06:45:17;100412.25;;;23.64;32.48
59110;BME280;44895;47.438;18.978;2023-04-27T06:48:21;100407.69;;;24.43;32.35
59110;BME280;44895;47.438;18.978;2023-04-27T06:51:25;100405.53;;;24.67;30.39
59110;BME280;44895;47.438;18.978;2023-04-27T06:54:29;100415.75;;;23.61;30.40
59110;BME280;44895;47.438;18.978;2023-04-27T06:57:32;100416.88;;;24.92;30.45
59110;BME280;44895;47.438;18.978;2023-04-27T07:00:36;100422.63;;;23.71;28.91
59110;BME280;44895;47.438;18.978;2023-04-27T07:03:40;100429.34;;;21.72;31.11
59110;BME280;44895;47.438;18.978;2023-04-27T07:06:44;100432.25;;;20.79;32.40
59110;BME280;44895;47.438;18.978;2023-04-27T07:09:47;100428.25;;;20.77;32.58
59110;BME280;44895;47.438;18.978;2023-04-27T07:12:51;100432.25;;;21.43;32.48
59110;BME280;44895;47.438;18.978;2023-04-27T07:15:55;100431.59;;;20.26;31.74
59110;BME280;44895;47.438;18.978;2023-04-27T07:19:00;100434.16;;;20.63;32.67
59110;BME280;44895;47.438;18.978;2023-04-27T07:22:04;100428.50;;;19.86;32.91
59110;BME280;44895;47.438;18.978;2023-04-27T07:25:08;100435.03;;;20.51;33.90
59110;BME280;44895;47.438;18.978;2023-04-27T07:28:12;100439.94;;;20.01;33.34
59110;BME280;44895;47.438;18.978;2023-04-27T07:31:17;100442.94;;;19.96;32.75
59110;BME280;44895;47.438;18.978;2023-04-27T07:34:21;100440.34;;;18.67;33.12
59110;BME280;44895;47.438;18.978;2023-04-27T07:37:25;100452.28;;;18.16;33.30
59110;BME280;44895;47.438;18.978;2023-04-27T07:40:30;100443.50;;;17.21;35.80
59110;BME280;44895;47.438;18.978;2023-04-27T07:43:35;100443.59;;;16.86;35.62
59110;BME280;44895;47.438;18.978;2023-04-27T07:46:38;100436.63;;;16.23;35.50
59110;BME280;44895;47.438;18.978;2023-04-27T07:49:43;100441.50;;;18.11;35.46
59110;BME280;44895;47.438;18.978;2023-04-27T07:52:49;100435.84;;;17.35;34.15
59110;BME280;44895;47.438;18.978;2023-04-27T07:55:53;100433.03;;;16.40;35.62
59110;BME280;44895;47.438;18.978;2023-04-27T07:58:56;100437.09;;;16.17;36.66
59110;BME280;44895;47.438;18.978;2023-04-27T08:02:00;100446.13;;;16.17;36.51
59110;BME280;44895;47.438;18.978;2023-04-27T08:05:04;100444.78;;;15.79;36.38
59110;BME280;44895;47.438;18.978;2023-04-27T08:08:08;100447.00;;;14.79;35.58
59110;BME280;44895;47.438;18.978;2023-04-27T08:11:12;100440.44;;;15.78;34.15
59110;BME280;44895;47.438;18.978;2023-04-27T08:14:16;100441.88;;;15.76;35.04
59110;BME280;44895;47.438;18.978;2023-04-27T08:17:19;100435.44;;;16.59;34.67
59110;BME280;44895;47.438;18.978;2023-04-27T08:20:26;100429.19;;;17.15;33.11
59110;BME280;44895;47.438;18.978;2023-04-27T08:23:29;100440.84;;;16.86;35.13
59110;BME280;44895;47.438;18.978;2023-04-27T08:26:35;100436.06;;;15.60;34.35
59110;BME280;44895;47.438;18.978;2023-04-27T08:29:44;100437.53;;;17.19;34.14
59110;BME280;44895;47.438;18.978;2023-04-27T08:32:49;100438.22;;;15.98;34.03
59110;BME280;44895;47.438;18.978;2023-04-27T08:35:53;100440.91;;;15.72;35.08
59110;BME280;44895;47.438;18.978;2023-04-27T08:38:57;100447.84;;;15.20;35.35
59110;BME280;44895;47.438;18.978;2023-04-27T08:42:09;100449.50;;;15.39;36.82
59110;BME280;44895;47.438;18.978;2023-04-27T08:45:13;100447.53;;;15.22;36.97
59110;BME280;44895;47.438;18.978;2023-04-27T08:48:17;100447.41;;;16.28;36.89
59110;BME280;44895;47.438;18.978;2023-04-27T08:51:23;100435.41;;;17.54;36.06
59110;BME280;44895;47.438;18.978;2023-04-27T08:54:29;100439.56;;;17.60;34.20
59110;BME280;44895;47.438;18.978;2023-04-27T08:57:33;100442.03;;;16.76;34.59
59110;BME280;44895;47.438;18.978;2023-04-27T09:00:42;100428.41;;;16.06;34.20
59110;BME280;44895;47.438;18.978;2023-04-27T09:03:46;100434.03;;;16.36;35.99
59110;BME280;44895;47.438;18.978;2023-04-27T09:06:50;100429.16;;;16.41;35.30
59110;BME280;44895;47.438;18.978;2023-04-27T09:10:02;100422.13;;;16.32;36.63
59110;BME280;44895;47.438;18.978;2023-04-27T09:13:06;100432.66;;;15.63;36.66
59110;BME280;44895;47.438;18.978;2023-04-27T09:16:13;100429.47;;;15.61;37.15
59110;BME280;44895;47.438;18.978;2023-04-27T09:19:23;100423.16;;;15.03;35.50
59110;BME280;44895;47.438;18.978;2023-04-27T09:22:27;100427.25;;;14.82;36.87
59110;BME280;44895;47.438;18.978;2023-04-27T09:25:32;100419.69;;;14.88;35.88
59110;BME280;44895;47.438;18.978;2023-04-27T09:28:39;100422.28;;;14.62;35.59
59110;BME280;44895;47.438;18.978;2023-04-27T09:31:43;100409.03;;;15.09;36.04
59110;BME280;44895;47.438;18.978;2023-04-27T09:34:47;100407.97;;;14.88;35.86
59110;BME280;44895;47.438;18.978;2023-04-27T09:37:51;100399.66;;;15.02;36.44
59110;BME280;44895;47.438;18.978;2023-04-27T09:40:56;100414.06;;;14.84;35.63
59110;BME280;44895;47.438;18.978;2023-04-27T09:44:00;100410.16;;;14.54;36.62
59110;BME280;44895;47.438;18.978;2023-04-27T09:47:04;100398.94;;;14.78;37.65
59110;BME280;44895;47.438;18.978;2023-04-27T09:50:11;100407.34;;;14.37;35.97
59110;BME280;44895;47.438;18.978;2023-04-27T09:53:20;100403.84;;;14.22;37.09
59110;BME280;44895;47.438;18.978;2023-04-27T10:00:16;100394.72;;;14.27;37.42
59110;BME280;44895;47.438;18.978;2023-04-27T10:03:50;100394.25;;;14.56;38.62
59110;BME280;44895;47.438;18.978;2023-04-27T10:10:02;100374.53;;;15.57;37.53
59110;BME280;44895;47.438;18.978;2023-04-27T10:13:07;100378.66;;;15.28;36.93
59110;BME280;44895;47.438;18.978;2023-04-27T10:16:14;100373.88;;;15.52;38.25
59110;BME280;44895;47.438;18.978;2023-04-27T10:19:20;100377.22;;;14.82;38.11
59110;BME280;44895;47.438;18.978;2023-04-27T10:22:38;100381.91;;;15.30;37.74
59110;BME280;44895;47.438;18.978;2023-04-27T10:25:45;100377.84;;;14.79;36.29
59110;BME280;44895;47.438;18.978;2023-04-27T10:29:06;100382.81;;;14.77;37.82
59110;BME280;44895;47.438;18.978;2023-04-27T10:32:18;100381.13;;;14.98;38.92
59110;BME280;44895;47.438;18.978;2023-04-27T10:35:37;100383.09;;;14.44;37.67
59110;BME280;44895;47.438;18.978;2023-04-27T10:38:42;100375.63;;;14.81;37.82
59110;BME280;44895;47.438;18.978;2023-04-27T10:41:52;100376.59;;;14.85;37.68
59110;BME280;44895;47.438;18.978;2023-04-27T10:44:57;100368.97;;;14.42;38.04
59110;BME280;44895;47.438;18.978;2023-04-27T10:48:01;100380.41;;;14.75;38.86
59110;BME280;44895;47.438;18.978;2023-04-27T10:51:05;100373.38;;;14.29;38.99
59110;BME280;44895;47.438;18.978;2023-04-27T10:54:10;100383.69;;;14.86;39.16
59110;BME280;44895;47.438;18.978;2023-04-27T10:57:14;100385.16;;;14.92;39.46
59110;BME280;44895;47.438;18.978;2023-04-27T11:00:23;100384.75;;;15.16;37.84
59110;BME280;44895;47.438;18.978;2023-04-27T11:03:27;100381.63;;;15.00;36.95
59110;BME280;44895;47.438;18.978;2023-04-27T11:06:40;100372.94;;;14.98;37.38
59110;BME280;44895;47.438;18.978;2023-04-27T11:09:47;100368.09;;;15.53;38.98
59110;BME280;44895;47.438;18.978;2023-04-27T11:12:52;100365.66;;;15.60;38.57
59110;BME280;44895;47.438;18.978;2023-04-27T11:15:58;100375.03;;;15.51;39.10
59110;BME280;44895;47.438;18.978;2023-04-27T11:19:05;100365.66;;;15.34;37.82
59110;BME280;44895;47.438;18.978;2023-04-27T11:22:09;100370.75;;;15.18;38.21
59110;BME280;44895;47.438;18.978;2023-04-27T11:25:12;100368.47;;;15.03;38.21
59110;BME280;44895;47.438;18.978;2023-04-27T11:28:18;100360.34;;;15.46;39.00
59110;BME280;44895;47.438;18.978;2023-04-27T11:31:22;100368.16;;;15.13;38.60
59110;BME280;44895;47.438;18.978;2023-04-27T11:34:26;100377.00;;;15.10;38.69
59110;BME280;44895;47.438;18.978;2023-04-27T11:37:29;100368.72;;;15.41;39.45
59110;BME280;44895;47.438;18.978;2023-04-27T11:40:33;100366.09;;;15.27;39.27
59110;BME280;44895;47.438;18.978;2023-04-27T11:43:40;100346.38;;;16.01;40.26
59110;BME280;44895;47.438;18.978;2023-04-27T11:46:45;100362.00;;;16.09;40.28
59110;BME280;44895;47.438;18.978;2023-04-27T11:49:51;100360.38;;;16.34;38.90
59110;BME280;44895;47.438;18.978;2023-04-27T11:52:59;100361.06;;;16.70;37.41
59110;BME280;44895;47.438;18.978;2023-04-27T11:56:05;100351.75;;;16.62;37.42
59110;BME280;44895;47.438;18.978;2023-04-27T11:59:20;100356.56;;;16.65;37.48
59110;BME280;44895;47.438;18.978;2023-04-27T12:02:27;100362.28;;;16.90;37.27
59110;BME280;44895;47.438;18.978;2023-04-27T12:05:31;100360.03;;;16.92;37.83
59110;BME280;44895;47.438;18.978;2023-04-27T12:08:34;100359.84;;;16.97;37.69
59110;BME280;44895;47.438;18.978;2023-04-27T12:11:38;100352.06;;;16.52;36.38
59110;BME280;44895;47.438;18.978;2023-04-27T12:14:42;100364.50;;;16.49;37.29
59110;BME280;44895;47.438;18.978;2023-04-27T12:17:45;100353.31;;;16.72;37.88
59110;BME280;44895;47.438;18.978;2023-04-27T12:20:49;100354.59;;;16.09;37.97
59110;BME280;44895;47.438;18.978;2023-04-27T12:23:53;100358.38;;;16.52;36.72
59110;BME280;44895;47.438;18.978;2023-04-27T12:26:57;100354.59;;;16.66;37.99
59110;BME280;44895;47.438;18.978;2023-04-27T12:30:02;100341.84;;;16.13;38.28
59110;BME280;44895;47.438;18.978;2023-04-27T12:33:07;100360.78;;;16.54;37.60
59110;BME280;44895;47.438;18.978;2023-04-27T12:36:13;100351.84;;;16.18;37.91
59110;BME280;44895;47.438;18.978;2023-04-27T12:39:21;100344.16;;;15.85;36.46
59110;BME280;44895;47.438;18.978;2023-04-27T12:42:27;100345.75;;;15.86;37.24
59110;BME280;44895;47.438;18.978;2023-04-27T12:45:31;100353.97;;;16.04;37.34
59110;BME280;44895;47.438;18.978;2023-04-27T12:48:35;100338.00;;;15.88;36.62
59110;BME280;44895;47.438;18.978;2023-04-27T12:51:38;100344.28;;;15.80;37.91
59110;BME280;44895;47.438;18.978;2023-04-27T12:54:42;100354.31;;;15.85;38.94
59110;BME280;44895;47.438;18.978;2023-04-27T12:57:45;100354.59;;;16.09;39.09
59110;BME280;44895;47.438;18.978;2023-04-27T13:00:49;100344.59;;;15.52;38.66
59110;BME280;44895;47.438;18.978;2023-04-27T13:03:54;100345.56;;;15.74;39.01
59110;BME280;44895;47.438;18.978;2023-04-27T13:06:57;100348.28;;;15.56;37.93
59110;BME280;44895;47.438;18.978;2023-04-27T13:10:04;100355.19;;;15.45;37.79
59110;BME280;44895;47.438;18.978;2023-04-27T13:13:09;100347.13;;;15.40;38.30
59110;BME280;44895;47.438;18.978;2023-04-27T13:16:12;100337.66;;;15.46;37.61
59110;BME280;44895;47.438;18.978;2023-04-27T13:19:16;100343.13;;;15.55;38.18
59110;BME280;44895;47.438;18.978;2023-04-27T13:22:20;100352.00;;;15.69;37.69
59110;BME280;44895;47.438;18.978;2023-04-27T13:25:24;100345.09;;;15.89;38.14
59110;BME280;44895;47.438;18.978;2023-04-27T13:28:28;100344.28;;;15.71;37.52
59110;BME280;44895;47.438;18.978;2023-04-27T13:31:31;100343.63;;;15.65;36.97
59110;BME280;44895;47.438;18.978;2023-04-27T13:34:36;100354.28;;;15.76;37.88
59110;BME280;44895;47.438;18.978;2023-04-27T13:37:40;100350.88;;;15.61;37.48
59110;BME280;44895;47.438;18.978;2023-04-27T13:40:44;100343.78;;;15.69;38.00
59110;BME280;44895;47.438;18.978;2023-04-27T13:43:48;100346.50;;;15.52;37.13
59110;BME280;44895;47.438;18.978;2023-04-27T13:46:51;100342.03;;;15.64;38.43
59110;BME280;44895;47.438;18.978;2023-04-27T13:49:55;100347.16;;;15.57;37.75
59110;BME280;44895;47.438;18.978;2023-04-27T13:53:00;100345.66;;;15.25;38.16
59110;BME280;44895;47.438;18.978;2023-04-27T13:56:04;100346.81;;;15.41;37.47
59110;BME280;44895;47.438;18.978;2023-04-27T13:59:08;100349.56;;;15.50;37.90
59110;BME280;44895;47.438;18.978;2023-04-27T14:02:12;100337.13;;;15.26;37.51
59110;BME280;44895;47.438;18.978;2023-04-27T14:05:16;100348.25;;;15.39;38.27
59110;BME280;44895;47.438;18.978;2023-04-27T14:08:20;100349.09;;;15.39;38.00
59110;BME280;44895;47.438;18.978;2023-04-27T14:11:25;100347.13;;;15.40;37.88
59110;BME280;44895;47.438;18.978;2023-04-27T14:14:28;100362.91;;;15.25;37.45
59110;BME280;44895;47.438;18.978;2023-04-27T14:17:32;100356.44;;;15.21;37.89
59110;BME280;44895;47.438;18.978;2023-04-27T14:20:36;100361.94;;;14.81;39.57
59110;BME280;44895;47.438;18.978;2023-04-27T14:23:40;100361.59;;;15.14;38.22
59110;BME280;44895;47.438;18.978;2023-04-27T14:26:44;100363.38;;;15.27;38.74
59110;BME280;44895;47.438;18.978;2023-04-27T14:29:50;100362.66;;;15.04;37.96
59110;BME280;44895;47.438;18.978;2023-04-27T14:32:53;100373.06;;;14.93;37.50
59110;BME280;44895;47.438;18.978;2023-04-27T14:35:57;100357.63;;;14.57;37.14
59110;BME280;44895;47.438;18.978;2023-04-27T14:39:02;100352.31;;;14.83;38.16
59110;BME280;44895;47.438;18.978;2023-04-27T14:42:06;100367.09;;;14.82;37.90
59110;BME280;44895;47.438;18.978;2023-04-27T14:45:10;100354.50;;;14.73;38.72
59110;BME280;44895;47.438;18.978;2023-04-27T14:48:14;100360.47;;;14.75;38.46
59110;BME280;44895;47.438;18.978;2023-04-27T14:51:18;100356.75;;;14.71;38.39
59110;BME280;44895;47.438;18.978;2023-04-27T14:54:21;100360.84;;;14.59;37.81
59110;BME280;44895;47.438;18.978;2023-04-27T14:57:25;100357.25;;;14.73;38.12
59110;BME280;44895;47.438;18.978;2023-04-27T15:00:29;100370.72;;;14.69;38.76
59110;BME280;44895;47.438;18.978;2023-04-27T15:03:34;100374.41;;;14.64;38.60
59110;BME280;44895;47.438;18.978;2023-04-27T15:06:38;100365.25;;;14.46;37.52
59110;BME280;44895;47.438;18.978;2023-04-27T15:09:41;100372.06;;;14.26;38.94
59110;BME280;44895;47.438;18.978;2023-04-27T15:12:45;100371.38;;;14.21;39.16
59110;BME280;44895;47.438;18.978;2023-04-27T15:15:57;100359.66;;;14.43;38.89
59110;BME280;44895;47.438;18.978;2023-04-27T15:19:01;100361.50;;;14.33;38.48
59110;BME280;44895;47.438;18.978;2023-04-27T15:22:06;100360.91;;;14.37;38.65
59110;BME280;44895;47.438;18.978;2023-04-27T15:25:10;100366.34;;;14.37;38.89
59110;BME280;44895;47.438;18.978;2023-04-27T15:28:15;100369.22;;;14.31;38.61
59110;BME280;44895;47.438;18.978;2023-04-27T15:31:19;100363.56;;;14.28;38.42
59110;BME280;44895;47.438;18.978;2023-04-27T15:34:23;100371.00;;;14.36;38.79
59110;BME280;44895;47.438;18.978;2023-04-27T15:37:28;100365.72;;;14.17;39.62
59110;BME280;44895;47.438;18.978;2023-04-27T15:40:32;100367.09;;;14.28;40.43
59110;BME280;44895;47.438;18.978;2023-04-27T15:43:36;100355.84;;;14.30;40.96
59110;BME280;44895;47.438;18.978;2023-04-27T15:46:40;100364.19;;;14.25;38.85
59110;BME280;44895;47.438;18.978;2023-04-27T15:49:44;100361.56;;;14.19;39.79
59110;BME280;44895;47.438;18.978;2023-04-27T15:52:47;100366.56;;;14.17;39.69
59110;BME280;44895;47.438;18.978;2023-04-27T15:55:51;100369.63;;;14.02;39.13
59110;BME280;44895;47.438;18.978;2023-04-27T15:58:55;100370.81;;;14.10;39.42